Terminal Aerodrome Forecast
Issued by NWS Boston, MA

Current Version | Previous Version | Text Only | Print | Product List | Glossary On
Versions: 1 2 3 4 5 6 7 8 9 10 11 12 13 14 15 16 17 18 19 20 21 22 23 24 25 26 27 28 29 30 31 32 33 34 35 36 37 38 39 40 41 42 43 44 45 46 47 48
000 FTUS41 KBOX 292324 TAFBOS TAF KBOS 292324Z 3000/3106 25006KT P6SM FEW070 SCT200 FM300300 23006KT P6SM SCT250 FM301500 21011KT P6SM FEW050 SCT250 FM301900 21015G23KT P6SM SCT050 BKN090 FM310100 23012G23KT P6SM -SHRA BKN130 FM310200 23010G21KT P6SM BKN130 FM310500 25009KT P6SM SCT250=

USA.gov is the U.S. government's official web portal to all federal, state and local government web resources and services.